ESKM

Details ICAO ESKM (MXX)
Name MORA
Region Sweden
Timezone Europe/Stockholm (UTC+2.0)
Plans Departing 9
Arriving 12
Stats Elevation 634 ft / 193 m (AMSL)
Location 60.957907° 14.511383°
Runways 1
Magnetic Variation 4.970° E
Sunrise 2018-05-26 01:53:49 UTC / 2018-05-26 03:53:49 Local
Sunset 2018-05-26 20:07:03 UTC / 2018-05-26 22:07:03 Local
Advertisement - Login to hide

Runways

ID Width Length Bearing (true) Bearing (mag) Surface Threshold Offset Overrun Length
16 148 ft / 45 m 5,940 ft / 1,811 m 161.25° 156.28° Asphalt 0 ft / 0 m 0 ft / 0 m
34 148 ft / 45 m 5,940 ft / 1,811 m 341.26° 336.29° Asphalt 0 ft / 0 m 0 ft / 0 m

Approach Navaids

Runway Type Ident Frequency Range Bearing (true) Bearing (mag) Slope Elevation
16 Localiser NKM 109.70 MHz 18 nm / 33 km 161.26° 156.30° - 634 ft / 193 m (AMSL)
16 Glidescope NKM 109.70 MHz 10 nm / 19 km 161.25° 156.28° 3.00° 634 ft / 193 m (AMSL)

Map

Weather


0- 5 10 15 20 25 30 35+ Temperature / ° C

Clouds and Precipitation
Forecast for 2018-05-26 12:00 UTC. Updated an hour ago

Ground ~20,000 ft ~40,000 ft Winds

METAR

ESKM 261220Z AUTO 14004KT 030V180 9999 NCD 22/05 Q1029

TAF

Not found

Frequencies

Tower 129.85 MHz AFIS
Warning: Do not use this data for real-world aviation or navigation. No guarantee of current accuracy is given.